Burt, New York
Current Conditions -  °F | °C
As of 5:53 PM on Thursday 20 Nov 2014 (Local Time) from KIAG Reporting Station
Scattered Clouds Scattered Clouds  
Wind Chill:   Ceiling: Unl
Heat Index: 22°   Visibility: 10mi
Dew Point: 13°   Wind: 20mph
Humidity: 68%   Direction: 270°W
Pressure: 29.91"   Gusts: NA
Location:  43.32°N, 78.71°W
Report Text: KIAG 202253Z 27017KT 10SM FEW028 SCT075 M06/M11 A2991 RMK AO2 SLP145 T10561106
Loading
Personal Weather Stations






























Interactive Weather Map New forecast layout! Learn more

10-Day Weather Forecast

Advertisements
Track Severe Weather on mobile